sensor_id;sensor_type;location;lat;lon;timestamp;P1;durP1;ratioP1;P2;durP2;ratioP2
45033;SDS011;30771;47.988;-4.186;2023-11-19T00:02:24;108.72;;;13.00;;
45033;SDS011;30771;47.988;-4.186;2023-11-19T00:04:51;107.13;;;14.23;;
45033;SDS011;30771;47.988;-4.186;2023-11-19T00:07:18;111.78;;;13.45;;
45033;SDS011;30771;47.988;-4.186;2023-11-19T00:09:46;108.72;;;12.77;;
45033;SDS011;30771;47.988;-4.186;2023-11-19T00:12:13;115.13;;;13.10;;
45033;SDS011;30771;47.988;-4.186;2023-11-19T00:14:40;108.40;;;13.63;;
45033;SDS011;30771;47.988;-4.186;2023-11-19T00:17:06;93.82;;;12.02;;
45033;SDS011;30771;47.988;-4.186;2023-11-19T00:19:33;109.43;;;12.18;;
45033;SDS011;30771;47.988;-4.186;2023-11-19T00:21:59;86.65;;;12.48;;
45033;SDS011;30771;47.988;-4.186;2023-11-19T00:24:26;109.40;;;12.88;;
45033;SDS011;30771;47.988;-4.186;2023-11-19T00:26:53;105.97;;;12.80;;
45033;SDS011;30771;47.988;-4.186;2023-11-19T00:29:19;90.97;;;10.68;;
45033;SDS011;30771;47.988;-4.186;2023-11-19T00:31:46;122.00;;;12.55;;
45033;SDS011;30771;47.988;-4.186;2023-11-19T00:34:13;96.50;;;11.60;;
45033;SDS011;30771;47.988;-4.186;2023-11-19T00:36:39;116.45;;;13.18;;
45033;SDS011;30771;47.988;-4.186;2023-11-19T00:39:06;116.82;;;12.93;;
45033;SDS011;30771;47.988;-4.186;2023-11-19T00:41:33;120.95;;;13.55;;
45033;SDS011;30771;47.988;-4.186;2023-11-19T00:43:59;103.00;;;11.48;;
45033;SDS011;30771;47.988;-4.186;2023-11-19T00:46:26;119.07;;;13.15;;
45033;SDS011;30771;47.988;-4.186;2023-11-19T00:48:53;109.65;;;12.00;;
45033;SDS011;30771;47.988;-4.186;2023-11-19T00:51:19;98.10;;;11.32;;
45033;SDS011;30771;47.988;-4.186;2023-11-19T00:53:46;96.75;;;11.32;;
45033;SDS011;30771;47.988;-4.186;2023-11-19T00:56:12;105.00;;;13.68;;
45033;SDS011;30771;47.988;-4.186;2023-11-19T00:58:39;108.20;;;12.38;;
45033;SDS011;30771;47.988;-4.186;2023-11-19T01:01:06;100.55;;;12.57;;
45033;SDS011;30771;47.988;-4.186;2023-11-19T01:03:32;100.10;;;11.75;;
45033;SDS011;30771;47.988;-4.186;2023-11-19T01:05:59;110.47;;;11.82;;
45033;SDS011;30771;47.988;-4.186;2023-11-19T01:08:26;107.90;;;12.68;;
45033;SDS011;30771;47.988;-4.186;2023-11-19T01:10:53;112.88;;;13.85;;
45033;SDS011;30771;47.988;-4.186;2023-11-19T01:13:19;90.75;;;12.20;;
45033;SDS011;30771;47.988;-4.186;2023-11-19T01:15:46;104.63;;;12.60;;
45033;SDS011;30771;47.988;-4.186;2023-11-19T01:18:13;112.93;;;12.95;;
45033;SDS011;30771;47.988;-4.186;2023-11-19T01:20:39;105.07;;;12.75;;
45033;SDS011;30771;47.988;-4.186;2023-11-19T01:23:06;104.93;;;11.07;;
45033;SDS011;30771;47.988;-4.186;2023-11-19T01:25:33;114.78;;;13.15;;
45033;SDS011;30771;47.988;-4.186;2023-11-19T01:27:59;110.95;;;12.45;;
45033;SDS011;30771;47.988;-4.186;2023-11-19T01:30:26;111.38;;;12.27;;
45033;SDS011;30771;47.988;-4.186;2023-11-19T01:32:53;107.53;;;12.15;;
45033;SDS011;30771;47.988;-4.186;2023-11-19T01:35:19;116.72;;;12.30;;
45033;SDS011;30771;47.988;-4.186;2023-11-19T01:37:46;105.40;;;12.75;;
45033;SDS011;30771;47.988;-4.186;2023-11-19T01:40:12;97.90;;;11.73;;
45033;SDS011;30771;47.988;-4.186;2023-11-19T01:42:39;109.68;;;12.07;;
45033;SDS011;30771;47.988;-4.186;2023-11-19T01:45:07;104.28;;;14.00;;
45033;SDS011;30771;47.988;-4.186;2023-11-19T01:47:34;111.70;;;11.60;;
45033;SDS011;30771;47.988;-4.186;2023-11-19T01:50:01;108.90;;;11.73;;
45033;SDS011;30771;47.988;-4.186;2023-11-19T01:52:29;108.60;;;11.77;;
45033;SDS011;30771;47.988;-4.186;2023-11-19T01:54:55;102.65;;;12.65;;
45033;SDS011;30771;47.988;-4.186;2023-11-19T01:57:22;121.65;;;13.30;;
45033;SDS011;30771;47.988;-4.186;2023-11-19T01:59:50;88.72;;;11.40;;
45033;SDS011;30771;47.988;-4.186;2023-11-19T02:02:18;110.97;;;11.52;;
45033;SDS011;30771;47.988;-4.186;2023-11-19T02:04:46;106.82;;;11.93;;
45033;SDS011;30771;47.988;-4.186;2023-11-19T02:07:14;113.65;;;12.80;;
45033;SDS011;30771;47.988;-4.186;2023-11-19T02:09:42;109.13;;;11.65;;
45033;SDS011;30771;47.988;-4.186;2023-11-19T02:12:09;113.32;;;13.63;;
45033;SDS011;30771;47.988;-4.186;2023-11-19T02:14:36;97.85;;;13.45;;
45033;SDS011;30771;47.988;-4.186;2023-11-19T02:17:04;99.82;;;13.13;;
45033;SDS011;30771;47.988;-4.186;2023-11-19T02:19:30;106.90;;;12.85;;
45033;SDS011;30771;47.988;-4.186;2023-11-19T02:21:57;110.95;;;12.30;;
45033;SDS011;30771;47.988;-4.186;2023-11-19T02:24:24;111.13;;;13.73;;
45033;SDS011;30771;47.988;-4.186;2023-11-19T02:26:58;102.75;;;13.80;;
45033;SDS011;30771;47.988;-4.186;2023-11-19T02:29:28;102.28;;;12.00;;
45033;SDS011;30771;47.988;-4.186;2023-11-19T02:31:55;101.47;;;12.82;;
45033;SDS011;30771;47.988;-4.186;2023-11-19T02:34:22;103.45;;;10.88;;
45033;SDS011;30771;47.988;-4.186;2023-11-19T02:36:48;117.03;;;12.35;;
45033;SDS011;30771;47.988;-4.186;2023-11-19T02:39:15;109.60;;;12.88;;
45033;SDS011;30771;47.988;-4.186;2023-11-19T02:41:42;106.10;;;13.15;;
45033;SDS011;30771;47.988;-4.186;2023-11-19T02:44:08;107.75;;;12.20;;
45033;SDS011;30771;47.988;-4.186;2023-11-19T02:46:35;100.30;;;12.23;;
45033;SDS011;30771;47.988;-4.186;2023-11-19T02:49:01;95.07;;;11.40;;
45033;SDS011;30771;47.988;-4.186;2023-11-19T02:51:28;109.70;;;11.50;;
45033;SDS011;30771;47.988;-4.186;2023-11-19T02:53:55;92.13;;;10.15;;
45033;SDS011;30771;47.988;-4.186;2023-11-19T02:56:22;86.93;;;10.05;;
45033;SDS011;30771;47.988;-4.186;2023-11-19T02:58:48;108.75;;;11.55;;
45033;SDS011;30771;47.988;-4.186;2023-11-19T03:01:21;91.25;;;9.63;;
45033;SDS011;30771;47.988;-4.186;2023-11-19T03:03:48;82.22;;;10.80;;
45033;SDS011;30771;47.988;-4.186;2023-11-19T03:06:15;88.28;;;10.85;;
45033;SDS011;30771;47.988;-4.186;2023-11-19T03:08:42;85.07;;;9.25;;
45033;SDS011;30771;47.988;-4.186;2023-11-19T03:11:08;103.97;;;10.77;;
45033;SDS011;30771;47.988;-4.186;2023-11-19T03:13:35;94.30;;;9.48;;
45033;SDS011;30771;47.988;-4.186;2023-11-19T03:16:02;89.22;;;11.20;;
45033;SDS011;30771;47.988;-4.186;2023-11-19T03:18:28;79.25;;;9.68;;
45033;SDS011;30771;47.988;-4.186;2023-11-19T03:20:55;84.90;;;10.40;;
45033;SDS011;30771;47.988;-4.186;2023-11-19T03:23:22;92.50;;;11.73;;
45033;SDS011;30771;47.988;-4.186;2023-11-19T03:25:48;92.07;;;10.30;;
45033;SDS011;30771;47.988;-4.186;2023-11-19T03:28:15;90.15;;;11.23;;
45033;SDS011;30771;47.988;-4.186;2023-11-19T03:30:41;102.72;;;11.63;;
45033;SDS011;30771;47.988;-4.186;2023-11-19T03:33:08;94.40;;;10.45;;
45033;SDS011;30771;47.988;-4.186;2023-11-19T03:35:35;88.28;;;10.57;;
45033;SDS011;30771;47.988;-4.186;2023-11-19T03:38:02;89.32;;;10.23;;
45033;SDS011;30771;47.988;-4.186;2023-11-19T03:40:28;88.85;;;10.05;;
45033;SDS011;30771;47.988;-4.186;2023-11-19T03:42:56;86.00;;;9.57;;
45033;SDS011;30771;47.988;-4.186;2023-11-19T03:45:23;84.70;;;9.10;;
45033;SDS011;30771;47.988;-4.186;2023-11-19T03:47:49;77.38;;;9.63;;
45033;SDS011;30771;47.988;-4.186;2023-11-19T03:50:16;84.88;;;10.30;;
45033;SDS011;30771;47.988;-4.186;2023-11-19T03:52:43;66.97;;;9.30;;
45033;SDS011;30771;47.988;-4.186;2023-11-19T03:55:10;77.63;;;9.73;;
45033;SDS011;30771;47.988;-4.186;2023-11-19T03:57:36;76.40;;;8.27;;
45033;SDS011;30771;47.988;-4.186;2023-11-19T04:00:03;90.30;;;9.77;;
45033;SDS011;30771;47.988;-4.186;2023-11-19T04:02:30;83.05;;;10.23;;
45033;SDS011;30771;47.988;-4.186;2023-11-19T04:04:57;61.47;;;8.90;;
45033;SDS011;30771;47.988;-4.186;2023-11-19T04:07:23;71.47;;;8.68;;
45033;SDS011;30771;47.988;-4.186;2023-11-19T04:09:50;59.05;;;7.43;;
45033;SDS011;30771;47.988;-4.186;2023-11-19T04:12:17;63.33;;;9.02;;
45033;SDS011;30771;47.988;-4.186;2023-11-19T04:14:43;87.05;;;10.75;;
45033;SDS011;30771;47.988;-4.186;2023-11-19T04:17:10;82.20;;;9.98;;
45033;SDS011;30771;47.988;-4.186;2023-11-19T04:19:37;83.03;;;9.63;;
45033;SDS011;30771;47.988;-4.186;2023-11-19T04:22:04;64.25;;;8.95;;
45033;SDS011;30771;47.988;-4.186;2023-11-19T04:24:31;77.03;;;8.65;;
45033;SDS011;30771;47.988;-4.186;2023-11-19T04:26:57;71.85;;;9.23;;
45033;SDS011;30771;47.988;-4.186;2023-11-19T04:29:24;70.82;;;9.25;;
45033;SDS011;30771;47.988;-4.186;2023-11-19T04:31:50;81.70;;;8.85;;
45033;SDS011;30771;47.988;-4.186;2023-11-19T04:34:17;66.20;;;8.32;;
45033;SDS011;30771;47.988;-4.186;2023-11-19T04:36:44;70.85;;;8.75;;
45033;SDS011;30771;47.988;-4.186;2023-11-19T04:39:10;77.18;;;8.80;;
45033;SDS011;30771;47.988;-4.186;2023-11-19T04:41:45;75.30;;;8.98;;
45033;SDS011;30771;47.988;-4.186;2023-11-19T04:44:15;74.13;;;9.25;;
45033;SDS011;30771;47.988;-4.186;2023-11-19T04:46:43;80.82;;;9.02;;
45033;SDS011;30771;47.988;-4.186;2023-11-19T04:49:10;76.68;;;8.77;;
45033;SDS011;30771;47.988;-4.186;2023-11-19T04:51:38;81.93;;;11.32;;
45033;SDS011;30771;47.988;-4.186;2023-11-19T04:54:11;78.72;;;8.63;;
45033;SDS011;30771;47.988;-4.186;2023-11-19T04:56:37;75.57;;;8.55;;
45033;SDS011;30771;47.988;-4.186;2023-11-19T04:59:04;69.30;;;8.30;;
45033;SDS011;30771;47.988;-4.186;2023-11-19T05:01:34;76.63;;;9.88;;
45033;SDS011;30771;47.988;-4.186;2023-11-19T05:04:01;82.80;;;9.18;;
45033;SDS011;30771;47.988;-4.186;2023-11-19T05:06:29;64.35;;;8.05;;
45033;SDS011;30771;47.988;-4.186;2023-11-19T05:08:56;67.05;;;8.43;;
45033;SDS011;30771;47.988;-4.186;2023-11-19T05:11:28;76.13;;;9.68;;
45033;SDS011;30771;47.988;-4.186;2023-11-19T05:13:55;68.82;;;8.63;;
45033;SDS011;30771;47.988;-4.186;2023-11-19T05:16:21;70.65;;;8.98;;
45033;SDS011;30771;47.988;-4.186;2023-11-19T05:18:48;72.18;;;9.05;;
45033;SDS011;30771;47.988;-4.186;2023-11-19T05:21:15;64.35;;;8.27;;
45033;SDS011;30771;47.988;-4.186;2023-11-19T05:23:41;65.70;;;7.88;;
45033;SDS011;30771;47.988;-4.186;2023-11-19T05:26:08;54.33;;;8.52;;
45033;SDS011;30771;47.988;-4.186;2023-11-19T05:28:35;60.50;;;7.72;;
45033;SDS011;30771;47.988;-4.186;2023-11-19T05:31:04;62.97;;;7.90;;
45033;SDS011;30771;47.988;-4.186;2023-11-19T05:33:30;57.67;;;8.52;;
45033;SDS011;30771;47.988;-4.186;2023-11-19T05:35:57;62.40;;;7.78;;
45033;SDS011;30771;47.988;-4.186;2023-11-19T05:38:24;65.43;;;8.93;;
45033;SDS011;30771;47.988;-4.186;2023-11-19T05:40:50;60.50;;;7.43;;
45033;SDS011;30771;47.988;-4.186;2023-11-19T05:43:17;84.22;;;10.63;;
45033;SDS011;30771;47.988;-4.186;2023-11-19T05:45:43;75.53;;;9.45;;
45033;SDS011;30771;47.988;-4.186;2023-11-19T05:48:10;72.50;;;9.27;;
45033;SDS011;30771;47.988;-4.186;2023-11-19T05:50:37;75.03;;;9.93;;
45033;SDS011;30771;47.988;-4.186;2023-11-19T05:53:04;78.45;;;9.50;;
45033;SDS011;30771;47.988;-4.186;2023-11-19T05:55:30;51.50;;;7.25;;
45033;SDS011;30771;47.988;-4.186;2023-11-19T05:57:57;66.70;;;8.80;;
45033;SDS011;30771;47.988;-4.186;2023-11-19T06:00:24;58.38;;;8.68;;
45033;SDS011;30771;47.988;-4.186;2023-11-19T06:02:51;62.03;;;8.45;;
45033;SDS011;30771;47.988;-4.186;2023-11-19T06:05:17;68.13;;;7.95;;
45033;SDS011;30771;47.988;-4.186;2023-11-19T06:07:44;62.55;;;8.07;;
45033;SDS011;30771;47.988;-4.186;2023-11-19T06:10:11;71.53;;;9.60;;
45033;SDS011;30771;47.988;-4.186;2023-11-19T06:12:37;69.00;;;8.85;;
45033;SDS011;30771;47.988;-4.186;2023-11-19T06:15:05;63.25;;;9.13;;
45033;SDS011;30771;47.988;-4.186;2023-11-19T06:17:32;71.97;;;10.45;;
45033;SDS011;30771;47.988;-4.186;2023-11-19T06:19:58;65.88;;;8.48;;
45033;SDS011;30771;47.988;-4.186;2023-11-19T06:22:25;78.57;;;10.02;;
45033;SDS011;30771;47.988;-4.186;2023-11-19T06:24:52;59.92;;;8.25;;
45033;SDS011;30771;47.988;-4.186;2023-11-19T06:27:18;61.60;;;8.93;;
45033;SDS011;30771;47.988;-4.186;2023-11-19T06:29:45;55.22;;;7.78;;
45033;SDS011;30771;47.988;-4.186;2023-11-19T06:32:11;61.70;;;8.48;;
45033;SDS011;30771;47.988;-4.186;2023-11-19T06:34:41;66.63;;;8.65;;
45033;SDS011;30771;47.988;-4.186;2023-11-19T06:37:08;70.38;;;7.68;;
45033;SDS011;30771;47.988;-4.186;2023-11-19T06:39:34;61.80;;;8.35;;
45033;SDS011;30771;47.988;-4.186;2023-11-19T06:42:01;61.72;;;9.15;;
45033;SDS011;30771;47.988;-4.186;2023-11-19T06:44:28;69.40;;;14.30;;
45033;SDS011;30771;47.988;-4.186;2023-11-19T06:46:54;58.30;;;10.07;;
45033;SDS011;30771;47.988;-4.186;2023-11-19T06:49:21;62.28;;;10.98;;
45033;SDS011;30771;47.988;-4.186;2023-11-19T06:51:49;65.40;;;9.50;;
45033;SDS011;30771;47.988;-4.186;2023-11-19T06:54:16;57.67;;;9.00;;
45033;SDS011;30771;47.988;-4.186;2023-11-19T06:56:42;67.65;;;8.88;;
45033;SDS011;30771;47.988;-4.186;2023-11-19T06:59:09;65.38;;;10.30;;
45033;SDS011;30771;47.988;-4.186;2023-11-19T07:01:36;59.80;;;7.13;;
45033;SDS011;30771;47.988;-4.186;2023-11-19T07:04:03;62.17;;;8.13;;
45033;SDS011;30771;47.988;-4.186;2023-11-19T07:06:29;53.72;;;7.70;;
45033;SDS011;30771;47.988;-4.186;2023-11-19T07:08:59;64.85;;;7.93;;
45033;SDS011;30771;47.988;-4.186;2023-11-19T07:11:26;59.50;;;8.07;;
45033;SDS011;30771;47.988;-4.186;2023-11-19T07:13:53;47.60;;;6.97;;
45033;SDS011;30771;47.988;-4.186;2023-11-19T07:16:19;59.60;;;8.60;;
45033;SDS011;30771;47.988;-4.186;2023-11-19T07:18:46;51.45;;;7.80;;
45033;SDS011;30771;47.988;-4.186;2023-11-19T07:21:12;65.95;;;8.27;;
45033;SDS011;30771;47.988;-4.186;2023-11-19T07:23:39;49.70;;;6.90;;
45033;SDS011;30771;47.988;-4.186;2023-11-19T07:26:06;53.92;;;6.53;;
45033;SDS011;30771;47.988;-4.186;2023-11-19T07:28:33;62.20;;;8.43;;
45033;SDS011;30771;47.988;-4.186;2023-11-19T07:30:59;58.42;;;7.90;;
45033;SDS011;30771;47.988;-4.186;2023-11-19T07:33:26;58.92;;;7.53;;
45033;SDS011;30771;47.988;-4.186;2023-11-19T07:35:53;53.67;;;7.22;;
45033;SDS011;30771;47.988;-4.186;2023-11-19T07:38:19;68.03;;;7.93;;
45033;SDS011;30771;47.988;-4.186;2023-11-19T07:40:47;57.17;;;7.78;;
45033;SDS011;30771;47.988;-4.186;2023-11-19T07:43:17;66.97;;;8.27;;
45033;SDS011;30771;47.988;-4.186;2023-11-19T07:45:43;50.67;;;7.75;;
45033;SDS011;30771;47.988;-4.186;2023-11-19T07:48:10;56.00;;;6.90;;
45033;SDS011;30771;47.988;-4.186;2023-11-19T07:50:37;55.30;;;8.52;;
45033;SDS011;30771;47.988;-4.186;2023-11-19T07:53:03;65.35;;;7.88;;
45033;SDS011;30771;47.988;-4.186;2023-11-19T07:55:30;64.85;;;7.05;;
45033;SDS011;30771;47.988;-4.186;2023-11-19T07:57:58;50.33;;;6.57;;
45033;SDS011;30771;47.988;-4.186;2023-11-19T08:00:25;67.75;;;7.80;;
45033;SDS011;30771;47.988;-4.186;2023-11-19T08:02:52;53.40;;;7.40;;
45033;SDS011;30771;47.988;-4.186;2023-11-19T08:05:18;58.15;;;7.10;;
45033;SDS011;30771;47.988;-4.186;2023-11-19T08:07:45;56.15;;;8.40;;
45033;SDS011;30771;47.988;-4.186;2023-11-19T08:10:12;46.75;;;6.88;;
45033;SDS011;30771;47.988;-4.186;2023-11-19T08:12:38;52.90;;;6.97;;
45033;SDS011;30771;47.988;-4.186;2023-11-19T08:15:05;50.78;;;6.78;;
45033;SDS011;30771;47.988;-4.186;2023-11-19T08:17:32;65.05;;;7.90;;
45033;SDS011;30771;47.988;-4.186;2023-11-19T08:19:59;50.53;;;6.85;;
45033;SDS011;30771;47.988;-4.186;2023-11-19T08:22:25;58.20;;;8.13;;
45033;SDS011;30771;47.988;-4.186;2023-11-19T08:24:52;60.13;;;7.90;;
45033;SDS011;30771;47.988;-4.186;2023-11-19T08:27:19;71.55;;;8.52;;
45033;SDS011;30771;47.988;-4.186;2023-11-19T08:29:45;46.95;;;6.97;;
45033;SDS011;30771;47.988;-4.186;2023-11-19T08:32:12;59.50;;;7.30;;
45033;SDS011;30771;47.988;-4.186;2023-11-19T08:34:39;54.42;;;7.30;;
45033;SDS011;30771;47.988;-4.186;2023-11-19T08:37:05;60.17;;;7.32;;
45033;SDS011;30771;47.988;-4.186;2023-11-19T08:39:32;56.10;;;7.38;;
45033;SDS011;30771;47.988;-4.186;2023-11-19T08:41:58;52.95;;;6.57;;
45033;SDS011;30771;47.988;-4.186;2023-11-19T08:44:25;64.65;;;8.30;;
45033;SDS011;30771;47.988;-4.186;2023-11-19T08:46:52;56.30;;;7.63;;
45033;SDS011;30771;47.988;-4.186;2023-11-19T08:49:18;62.63;;;7.55;;
45033;SDS011;30771;47.988;-4.186;2023-11-19T08:51:45;52.72;;;8.43;;
45033;SDS011;30771;47.988;-4.186;2023-11-19T08:54:11;70.90;;;7.93;;
45033;SDS011;30771;47.988;-4.186;2023-11-19T08:56:38;46.70;;;8.05;;
45033;SDS011;30771;47.988;-4.186;2023-11-19T08:59:05;49.63;;;7.57;;
45033;SDS011;30771;47.988;-4.186;2023-11-19T09:01:32;58.25;;;7.25;;
45033;SDS011;30771;47.988;-4.186;2023-11-19T09:03:58;58.60;;;7.57;;
45033;SDS011;30771;47.988;-4.186;2023-11-19T09:06:25;48.00;;;7.15;;
45033;SDS011;30771;47.988;-4.186;2023-11-19T09:08:52;47.90;;;7.57;;
45033;SDS011;30771;47.988;-4.186;2023-11-19T09:11:18;57.25;;;7.22;;
45033;SDS011;30771;47.988;-4.186;2023-11-19T09:13:45;61.72;;;8.07;;
45033;SDS011;30771;47.988;-4.186;2023-11-19T09:16:12;50.33;;;7.20;;
45033;SDS011;30771;47.988;-4.186;2023-11-19T09:18:39;55.65;;;6.70;;
45033;SDS011;30771;47.988;-4.186;2023-11-19T09:21:05;50.38;;;7.03;;
45033;SDS011;30771;47.988;-4.186;2023-11-19T09:23:32;59.67;;;8.30;;
45033;SDS011;30771;47.988;-4.186;2023-11-19T09:25:59;44.33;;;7.07;;
45033;SDS011;30771;47.988;-4.186;2023-11-19T09:28:25;45.95;;;6.05;;
45033;SDS011;30771;47.988;-4.186;2023-11-19T09:30:52;44.75;;;6.70;;
45033;SDS011;30771;47.988;-4.186;2023-11-19T09:33:19;45.42;;;6.75;;
45033;SDS011;30771;47.988;-4.186;2023-11-19T09:35:45;47.70;;;7.20;;
45033;SDS011;30771;47.988;-4.186;2023-11-19T09:38:12;49.55;;;7.15;;
45033;SDS011;30771;47.988;-4.186;2023-11-19T09:40:39;52.00;;;7.63;;
45033;SDS011;30771;47.988;-4.186;2023-11-19T09:43:05;55.10;;;6.65;;
45033;SDS011;30771;47.988;-4.186;2023-11-19T09:45:37;58.42;;;7.07;;
45033;SDS011;30771;47.988;-4.186;2023-11-19T09:48:17;60.47;;;8.25;;
45033;SDS011;30771;47.988;-4.186;2023-11-19T09:50:47;49.05;;;7.55;;
45033;SDS011;30771;47.988;-4.186;2023-11-19T09:53:14;59.08;;;7.60;;
45033;SDS011;30771;47.988;-4.186;2023-11-19T09:55:41;59.42;;;7.88;;
45033;SDS011;30771;47.988;-4.186;2023-11-19T09:58:09;61.60;;;11.02;;
45033;SDS011;30771;47.988;-4.186;2023-11-19T10:00:38;56.90;;;7.13;;
45033;SDS011;30771;47.988;-4.186;2023-11-19T10:03:05;53.95;;;8.13;;
45033;SDS011;30771;47.988;-4.186;2023-11-19T10:05:35;58.38;;;7.97;;
45033;SDS011;30771;47.988;-4.186;2023-11-19T10:08:02;44.47;;;6.75;;
45033;SDS011;30771;47.988;-4.186;2023-11-19T10:10:28;63.03;;;9.20;;
45033;SDS011;30771;47.988;-4.186;2023-11-19T10:12:55;57.55;;;7.90;;
45033;SDS011;30771;47.988;-4.186;2023-11-19T10:15:24;54.28;;;7.55;;
45033;SDS011;30771;47.988;-4.186;2023-11-19T10:17:51;63.87;;;8.27;;
45033;SDS011;30771;47.988;-4.186;2023-11-19T10:20:18;61.22;;;7.40;;
45033;SDS011;30771;47.988;-4.186;2023-11-19T10:22:45;54.75;;;8.32;;
45033;SDS011;30771;47.988;-4.186;2023-11-19T10:25:21;52.92;;;7.47;;
45033;SDS011;30771;47.988;-4.186;2023-11-19T10:27:49;55.47;;;7.75;;
45033;SDS011;30771;47.988;-4.186;2023-11-19T10:30:29;56.45;;;8.07;;
45033;SDS011;30771;47.988;-4.186;2023-11-19T10:33:06;48.88;;;6.43;;
45033;SDS011;30771;47.988;-4.186;2023-11-19T10:35:33;63.72;;;7.63;;
45033;SDS011;30771;47.988;-4.186;2023-11-19T10:38:01;53.17;;;7.18;;
45033;SDS011;30771;47.988;-4.186;2023-11-19T10:40:39;58.63;;;7.47;;
45033;SDS011;30771;47.988;-4.186;2023-11-19T10:43:06;42.47;;;6.78;;
45033;SDS011;30771;47.988;-4.186;2023-11-19T10:45:34;51.38;;;8.43;;
45033;SDS011;30771;47.988;-4.186;2023-11-19T10:48:02;62.10;;;8.93;;
45033;SDS011;30771;47.988;-4.186;2023-11-19T10:50:30;51.40;;;6.75;;
45033;SDS011;30771;47.988;-4.186;2023-11-19T10:52:56;54.13;;;7.60;;
45033;SDS011;30771;47.988;-4.186;2023-11-19T10:55:26;55.47;;;7.85;;
45033;SDS011;30771;47.988;-4.186;2023-11-19T10:57:56;58.80;;;8.40;;
45033;SDS011;30771;47.988;-4.186;2023-11-19T11:00:25;52.75;;;7.22;;
45033;SDS011;30771;47.988;-4.186;2023-11-19T11:02:56;51.38;;;7.07;;
45033;SDS011;30771;47.988;-4.186;2023-11-19T11:05:27;46.75;;;6.43;;
45033;SDS011;30771;47.988;-4.186;2023-11-19T11:07:55;50.90;;;7.53;;
45033;SDS011;30771;47.988;-4.186;2023-11-19T11:10:24;52.35;;;7.72;;
45033;SDS011;30771;47.988;-4.186;2023-11-19T11:12:52;54.35;;;8.20;;
45033;SDS011;30771;47.988;-4.186;2023-11-19T11:15:19;51.78;;;6.93;;
45033;SDS011;30771;47.988;-4.186;2023-11-19T11:17:46;50.97;;;7.13;;
45033;SDS011;30771;47.988;-4.186;2023-11-19T11:20:14;54.13;;;7.50;;
45033;SDS011;30771;47.988;-4.186;2023-11-19T11:22:55;56.38;;;7.53;;
45033;SDS011;30771;47.988;-4.186;2023-11-19T11:25:43;50.70;;;7.82;;
45033;SDS011;30771;47.988;-4.186;2023-11-19T11:34:03;57.92;;;7.22;;
45033;SDS011;30771;47.988;-4.186;2023-11-19T11:39:52;40.72;;;7.28;;
45033;SDS011;30771;47.988;-4.186;2023-11-19T11:50:11;63.80;;;7.30;;
45033;SDS011;30771;47.988;-4.186;2023-11-19T11:55:27;45.83;;;6.15;;
45033;SDS011;30771;47.988;-4.186;2023-11-19T11:57:55;48.78;;;6.20;;
45033;SDS011;30771;47.988;-4.186;2023-11-19T12:00:22;41.67;;;5.65;;
45033;SDS011;30771;47.988;-4.186;2023-11-19T12:02:56;49.42;;;6.90;;
45033;SDS011;30771;47.988;-4.186;2023-11-19T12:05:25;60.88;;;8.43;;
45033;SDS011;30771;47.988;-4.186;2023-11-19T12:07:57;45.92;;;7.05;;
45033;SDS011;30771;47.988;-4.186;2023-11-19T12:10:26;37.80;;;5.97;;
45033;SDS011;30771;47.988;-4.186;2023-11-19T12:12:58;42.28;;;6.47;;
45033;SDS011;30771;47.988;-4.186;2023-11-19T12:15:25;44.08;;;6.90;;
45033;SDS011;30771;47.988;-4.186;2023-11-19T12:17:52;51.47;;;7.68;;
45033;SDS011;30771;47.988;-4.186;2023-11-19T12:20:19;62.33;;;8.43;;
45033;SDS011;30771;47.988;-4.186;2023-11-19T12:22:51;55.60;;;7.80;;
45033;SDS011;30771;47.988;-4.186;2023-11-19T12:25:19;42.15;;;6.78;;
45033;SDS011;30771;47.988;-4.186;2023-11-19T12:27:47;39.67;;;6.15;;
45033;SDS011;30771;47.988;-4.186;2023-11-19T12:30:24;44.97;;;6.75;;
45033;SDS011;30771;47.988;-4.186;2023-11-19T12:32:53;46.97;;;7.78;;
45033;SDS011;30771;47.988;-4.186;2023-11-19T12:35:21;47.97;;;9.10;;
45033;SDS011;30771;47.988;-4.186;2023-11-19T12:37:49;43.17;;;6.22;;
45033;SDS011;30771;47.988;-4.186;2023-11-19T12:40:18;45.00;;;6.53;;
45033;SDS011;30771;47.988;-4.186;2023-11-19T12:42:46;47.22;;;6.38;;
45033;SDS011;30771;47.988;-4.186;2023-11-19T12:45:16;49.38;;;7.35;;
45033;SDS011;30771;47.988;-4.186;2023-11-19T12:47:43;40.97;;;8.15;;
45033;SDS011;30771;47.988;-4.186;2023-11-19T12:50:11;46.05;;;9.32;;
45033;SDS011;30771;47.988;-4.186;2023-11-19T12:52:37;45.33;;;6.82;;
45033;SDS011;30771;47.988;-4.186;2023-11-19T12:55:05;45.92;;;6.75;;
45033;SDS011;30771;47.988;-4.186;2023-11-19T12:57:53;40.35;;;6.93;;
45033;SDS011;30771;47.988;-4.186;2023-11-19T13:00:20;39.97;;;5.75;;
45033;SDS011;30771;47.988;-4.186;2023-11-19T13:02:51;40.97;;;5.95;;
45033;SDS011;30771;47.988;-4.186;2023-11-19T13:05:22;32.53;;;5.28;;
45033;SDS011;30771;47.988;-4.186;2023-11-19T13:08:02;41.92;;;5.03;;
45033;SDS011;30771;47.988;-4.186;2023-11-19T13:10:30;37.92;;;5.07;;
45033;SDS011;30771;47.988;-4.186;2023-11-19T13:15:28;42.92;;;6.18;;
45033;SDS011;30771;47.988;-4.186;2023-11-19T13:17:55;47.50;;;6.55;;
45033;SDS011;30771;47.988;-4.186;2023-11-19T13:20:22;47.10;;;6.45;;
45033;SDS011;30771;47.988;-4.186;2023-11-19T13:25:27;46.65;;;6.25;;
45033;SDS011;30771;47.988;-4.186;2023-11-19T13:27:54;44.55;;;6.70;;
45033;SDS011;30771;47.988;-4.186;2023-11-19T13:30:21;45.22;;;6.38;;
45033;SDS011;30771;47.988;-4.186;2023-11-19T13:32:52;54.80;;;6.72;;
45033;SDS011;30771;47.988;-4.186;2023-11-19T13:35:19;38.35;;;6.28;;
45033;SDS011;30771;47.988;-4.186;2023-11-19T13:37:46;46.33;;;6.88;;
45033;SDS011;30771;47.988;-4.186;2023-11-19T13:40:13;46.15;;;6.57;;
45033;SDS011;30771;47.988;-4.186;2023-11-19T13:42:40;44.10;;;6.07;;
45033;SDS011;30771;47.988;-4.186;2023-11-19T13:45:13;55.85;;;7.30;;
45033;SDS011;30771;47.988;-4.186;2023-11-19T13:47:41;35.72;;;5.53;;
45033;SDS011;30771;47.988;-4.186;2023-11-19T13:50:09;47.72;;;6.45;;
45033;SDS011;30771;47.988;-4.186;2023-11-19T13:52:41;43.22;;;7.28;;
45033;SDS011;30771;47.988;-4.186;2023-11-19T13:55:09;47.45;;;6.40;;
45033;SDS011;30771;47.988;-4.186;2023-11-19T13:57:36;40.60;;;5.75;;
45033;SDS011;30771;47.988;-4.186;2023-11-19T14:00:07;47.92;;;5.68;;
45033;SDS011;30771;47.988;-4.186;2023-11-19T14:02:36;54.03;;;7.50;;
45033;SDS011;30771;47.988;-4.186;2023-11-19T14:05:03;40.95;;;5.88;;
45033;SDS011;30771;47.988;-4.186;2023-11-19T14:07:30;50.10;;;6.95;;
45033;SDS011;30771;47.988;-4.186;2023-11-19T14:09:57;40.42;;;5.55;;
45033;SDS011;30771;47.988;-4.186;2023-11-19T14:12:23;36.65;;;5.95;;
45033;SDS011;30771;47.988;-4.186;2023-11-19T14:14:50;43.60;;;6.68;;
45033;SDS011;30771;47.988;-4.186;2023-11-19T14:17:17;39.60;;;6.22;;
45033;SDS011;30771;47.988;-4.186;2023-11-19T14:19:43;43.08;;;5.75;;
45033;SDS011;30771;47.988;-4.186;2023-11-19T14:22:10;37.28;;;5.18;;
45033;SDS011;30771;47.988;-4.186;2023-11-19T14:24:37;42.53;;;5.43;;
45033;SDS011;30771;47.988;-4.186;2023-11-19T14:27:04;33.13;;;5.20;;
45033;SDS011;30771;47.988;-4.186;2023-11-19T14:29:31;46.20;;;6.05;;
45033;SDS011;30771;47.988;-4.186;2023-11-19T14:31:57;42.80;;;6.72;;
45033;SDS011;30771;47.988;-4.186;2023-11-19T14:34:24;45.30;;;6.82;;
45033;SDS011;30771;47.988;-4.186;2023-11-19T14:36:51;52.60;;;7.60;;
45033;SDS011;30771;47.988;-4.186;2023-11-19T14:39:18;52.70;;;7.07;;
45033;SDS011;30771;47.988;-4.186;2023-11-19T14:41:44;50.42;;;7.32;;
45033;SDS011;30771;47.988;-4.186;2023-11-19T14:44:11;47.30;;;6.90;;